createdAt,value
2019-01-09T00:01:14.804Z,98245.00
2019-01-09T00:06:19.033Z,98238.52
2019-01-09T00:16:52.161Z,98240.28
2019-01-09T00:21:57.485Z,98236.04
2019-01-09T00:32:19.232Z,98242.92
2019-01-09T00:58:22.780Z,98237.66
2019-01-09T01:04:05.207Z,98232.65
2019-01-09T01:09:47.477Z,98233.33
2019-01-09T01:33:06.566Z,98245.80
2019-01-09T01:44:40.932Z,98257.91
2019-01-09T01:50:23.296Z,98250.80
2019-01-09T01:56:05.587Z,98249.25
2019-01-09T02:01:47.859Z,98251.50
2019-01-09T02:07:37.462Z,98254.52
2019-01-09T02:13:19.746Z,98240.53
2019-01-09T02:24:53.781Z,98241.29
2019-01-09T02:30:36.181Z,98254.38
2019-01-09T02:35:40.443Z,98240.28
2019-01-09T02:40:44.671Z,98256.81
2019-01-09T02:45:49.178Z,98262.35
2019-01-09T02:51:12.461Z,98271.48
2019-01-09T03:06:35.448Z,98239.10
2019-01-09T03:11:51.477Z,98245.23
2019-01-09T03:27:34.361Z,98247.09
2019-01-09T03:32:38.591Z,98260.11
2019-01-09T03:43:11.557Z,98262.36
2019-01-09T03:48:15.780Z,98258.79
2019-01-09T03:53:20.444Z,98264.69
2019-01-09T04:03:34.717Z,98277.26
2019-01-09T04:13:48.533Z,98289.80
2019-01-09T04:24:03.472Z,98294.16
2019-01-09T04:44:37.026Z,98271.67
2019-01-09T04:49:41.254Z,98276.69
2019-01-09T04:55:04.687Z,98281.64
2019-01-09T05:00:27.971Z,98281.53
2019-01-09T05:05:32.201Z,98283.69
2019-01-09T05:10:55.497Z,98296.66
2019-01-09T05:15:59.789Z,98287.56
2019-01-09T05:21:04.015Z,98289.88
2019-01-09T05:26:27.310Z,98298.27
2019-01-09T05:31:50.527Z,98325.39
2019-01-09T05:36:55.295Z,98321.14
2019-01-09T05:42:18.668Z,98299.50
2019-01-09T05:47:23.203Z,98303.86
2019-01-09T05:52:27.429Z,98306.45
2019-01-09T05:57:50.737Z,98293.73
2019-01-09T06:02:54.972Z,98301.95
2019-01-09T06:07:59.208Z,98301.41
2019-01-09T06:13:03.515Z,98304.44
2019-01-09T06:18:19.575Z,98314.73
2019-01-09T06:23:42.860Z,98311.13
2019-01-09T06:33:57.080Z,98327.89
2019-01-09T06:39:20.380Z,98336.31
2019-01-09T06:55:22.577Z,98332.59
2019-01-09T07:00:26.784Z,98325.80
2019-01-09T07:05:31.093Z,98325.04
2019-01-09T07:15:45.176Z,98323.34
2019-01-09T07:21:01.879Z,98316.61
2019-01-09T07:26:06.166Z,98327.34
2019-01-09T07:31:10.396Z,98335.71
2019-01-09T07:36:33.701Z,98335.71
2019-01-09T07:41:38.067Z,98342.59
2019-01-09T07:47:01.367Z,98353.17
2019-01-09T07:52:24.789Z,98351.70
2019-01-09T07:57:29.051Z,98335.87
2019-01-09T08:02:52.359Z,98350.38
2019-01-09T08:13:25.703Z,98346.66
2019-01-09T08:24:10.881Z,98365.92
2019-01-09T08:29:15.160Z,98358.16
2019-01-09T08:34:19.745Z,98365.70
2019-01-09T08:39:24.080Z,98365.53
2019-01-09T08:44:28.571Z,98359.34
2019-01-09T08:49:33.136Z,98368.33
2019-01-09T08:54:37.500Z,98369.41
2019-01-09T08:59:41.830Z,98381.23
2019-01-09T09:04:46.055Z,98386.52
2019-01-09T09:09:50.293Z,98388.39
2019-01-09T09:14:54.654Z,98393.41
2019-01-09T09:19:58.977Z,98397.11
2019-01-09T09:25:03.351Z,98408.44
2019-01-09T09:30:08.388Z,98400.66
2019-01-09T09:35:12.732Z,98394.81
2019-01-09T09:40:19.824Z,98409.66
2019-01-09T09:45:24.449Z,98408.66
2019-01-09T09:50:29.202Z,98417.81
2019-01-09T09:55:33.568Z,98421.25
2019-01-09T10:00:37.948Z,98422.89
2019-01-09T10:05:42.292Z,98422.75
2019-01-09T10:10:46.631Z,98432.23
2019-01-09T10:16:09.940Z,98425.17
2019-01-09T10:21:33.241Z,98424.63
2019-01-09T10:26:37.544Z,98429.92
2019-01-09T10:32:00.856Z,98431.52
2019-01-09T10:37:44.777Z,98436.44
2019-01-09T10:48:37.804Z,98434.16
2019-01-09T10:53:42.037Z,98424.23
2019-01-09T10:58:46.281Z,98431.50
2019-01-09T11:03:50.612Z,98431.60
2019-01-09T11:08:54.901Z,98425.91
2019-01-09T11:13:59.139Z,98429.97
2019-01-09T11:24:33.836Z,98441.38
2019-01-09T11:34:48.499Z,98445.89
2019-01-09T11:39:52.781Z,98443.00
2019-01-09T11:44:57.259Z,98431.45
2019-01-09T11:55:51.892Z,98444.50
2019-01-09T12:00:56.317Z,98426.60
2019-01-09T12:06:00.653Z,98427.73
2019-01-09T12:11:44.249Z,98429.44
2019-01-09T12:17:08.483Z,98416.17
2019-01-09T12:22:31.855Z,98422.64
2019-01-09T12:27:55.181Z,98426.48
2019-01-09T12:33:38.866Z,98438.17
2019-01-09T12:44:12.353Z,98444.19
2019-01-09T12:49:35.740Z,98447.13
2019-01-09T13:05:44.015Z,98453.84
2019-01-09T13:11:07.317Z,98466.12
2019-01-09T13:31:59.901Z,98474.21
2019-01-09T13:37:15.600Z,98480.03
2019-01-09T13:47:48.438Z,98499.10
2019-01-09T13:52:52.947Z,98487.28
2019-01-09T13:57:57.269Z,98489.50
2019-01-09T14:03:20.977Z,98499.66
2019-01-09T14:09:04.677Z,98502.02
2019-01-09T14:19:38.033Z,98516.50
2019-01-09T14:30:52.694Z,98521.77
2019-01-09T14:35:58.700Z,98533.09
2019-01-09T14:41:14.645Z,98523.29
2019-01-09T14:58:33.376Z,98523.49
2019-01-09T15:03:56.753Z,98530.24
2019-01-09T15:14:29.728Z,98545.67
2019-01-09T15:19:53.017Z,98552.49
2019-01-09T15:24:57.344Z,98539.98
2019-01-09T15:36:11.376Z,98552.88
2019-01-09T15:41:15.651Z,98551.97
2019-01-09T15:58:21.705Z,98562.97
2019-01-09T16:03:25.921Z,98578.06
2019-01-09T16:08:30.483Z,98585.57
2019-01-09T16:13:34.716Z,98603.89
2019-01-09T16:18:58.466Z,98587.11
2019-01-09T16:24:21.762Z,98605.52
2019-01-09T16:34:55.048Z,98613.00
2019-01-09T16:40:23.255Z,98620.73
2019-01-09T16:51:05.047Z,98610.45
2019-01-09T17:01:39.516Z,98628.47
2019-01-09T17:12:33.468Z,98635.13
2019-01-09T17:17:37.713Z,98640.69
2019-01-09T17:28:11.260Z,98652.45
2019-01-09T17:33:56.222Z,98660.41
2019-01-09T17:39:00.577Z,98673.55
2019-01-09T17:44:05.333Z,98685.48
2019-01-09T17:49:09.546Z,98689.87
2019-01-09T17:54:13.881Z,98694.35
2019-01-09T17:59:18.294Z,98698.30
2019-01-09T18:04:22.773Z,98706.66
2019-01-09T18:09:27.010Z,98714.22
2019-01-09T18:14:37.006Z,98727.84
2019-01-09T18:19:41.710Z,98726.44
2019-01-09T18:24:46.205Z,98734.63
2019-01-09T18:29:50.802Z,98746.45
2019-01-09T18:35:23.884Z,98748.69
2019-01-09T18:41:13.277Z,98751.91
2019-01-09T18:46:29.185Z,98766.31
2019-01-09T18:52:07.436Z,98770.31
2019-01-09T18:57:11.696Z,98767.69
2019-01-09T19:02:16.009Z,98776.25
2019-01-09T19:07:20.375Z,98773.56
2019-01-09T19:12:24.596Z,98771.33
2019-01-09T19:17:28.928Z,98783.98
2019-01-09T19:22:33.263Z,98790.12
2019-01-09T19:27:37.835Z,98793.67
2019-01-09T19:32:42.067Z,98800.69
2019-01-09T19:37:47.430Z,98807.34
2019-01-09T19:42:51.662Z,98799.13
2019-01-09T19:47:56.083Z,98799.27
2019-01-09T19:53:19.986Z,98807.44
2019-01-09T19:58:36.604Z,98820.86
2019-01-09T20:03:52.270Z,98818.81
2019-01-09T20:19:36.913Z,98821.25
2019-01-09T20:25:00.353Z,98823.96
2019-01-09T20:30:46.260Z,98833.83
2019-01-09T20:41:38.091Z,98860.67
2019-01-09T20:47:01.774Z,98866.16
2019-01-09T21:02:51.518Z,98887.95
2019-01-09T21:08:35.225Z,98890.58
2019-01-09T21:14:19.113Z,98895.35
2019-01-09T21:29:43.952Z,98906.00
2019-01-09T21:35:08.000Z,98910.86
2019-01-09T21:40:53.267Z,98919.66
2019-01-09T21:45:57.579Z,98919.84
2019-01-09T21:51:21.250Z,98932.22
2019-01-09T22:07:36.740Z,98942.81
2019-01-09T22:12:55.931Z,98944.34
2019-01-09T22:18:00.268Z,98942.37
2019-01-09T22:28:34.515Z,98953.80
2019-01-09T22:39:47.677Z,98963.91
2019-01-09T22:45:11.393Z,98964.48
2019-01-09T22:50:56.225Z,98965.53
2019-01-09T23:02:10.231Z,98961.59
2019-01-09T23:07:14.917Z,98964.62
2019-01-09T23:12:31.464Z,98946.05
2019-01-09T23:18:15.255Z,98947.36
2019-01-09T23:29:29.521Z,98950.17
2019-01-09T23:46:17.390Z,98938.98
2019-01-09T23:56:51.267Z,98987.19
